Time;durP1;ratioP1;P1;durP2;ratioP2;P2;SDS_P1;SDS_P2;PMS_P1;PMS_P2;Temp;Humidity;BMP_temperature;BMP_pressure;BME280_temperature;BME280_humidity;BME280_pressure;Samples;Min_cycle;Max_cycle;Signal;HPM_P1;HPM_P2
2020/12/17 00:01:13;;;;;;;4.40;1.30;;;9.70;99.90;;;;;;10433278;28;20100;-53
2020/12/17 00:06:35;;;;;;;3.42;1.25;;;9.70;99.90;;;;;;10436764;28;20036;-53
2020/12/17 00:11:56;;;;;;;3.13;1.88;;;9.70;99.90;;;;;;10429036;28;20467;-53
2020/12/17 00:17:17;;;;;;;4.18;1.58;;;9.60;99.90;;;;;;10428903;28;20138;-52
2020/12/17 00:22:39;;;;;;;3.65;1.05;;;9.60;99.90;;;;;;10433150;28;20045;-53
2020/12/17 00:28:00;;;;;;;3.10;1.63;;;9.50;99.90;;;;;;10431868;28;20044;-53
2020/12/17 00:33:21;;;;;;;3.90;1.65;;;9.50;99.90;;;;;;10428930;28;20045;-53
2020/12/17 00:38:42;;;;;;;2.97;1.70;;;9.50;99.90;;;;;;10437052;28;20044;-53
2020/12/17 00:44:03;;;;;;;4.45;1.00;;;9.40;99.90;;;;;;10436209;28;20465;-53
2020/12/17 00:49:25;;;;;;;3.33;1.10;;;9.40;99.90;;;;;;10441488;28;20075;-53
2020/12/17 00:54:46;;;;;;;2.53;0.98;;;9.50;99.90;;;;;;10446230;28;20041;-53
2020/12/17 01:00:08;;;;;;;7.85;1.40;;;9.40;99.90;;;;;;10446657;28;20059;-53
2020/12/17 01:05:28;;;;;;;2.70;1.20;;;9.40;99.90;;;;;;10442435;28;20083;-53
2020/12/17 01:10:49;;;;;;;4.50;1.60;;;9.40;99.90;;;;;;10444756;28;20501;-53
2020/12/17 01:16:10;;;;;;;3.20;1.67;;;9.50;99.90;;;;;;10443821;28;20041;-53
2020/12/17 01:21:31;;;;;;;5.80;1.73;;;9.50;99.90;;;;;;10436338;28;20033;-53
2020/12/17 01:26:54;;;;;;;3.83;1.23;;;9.40;99.90;;;;;;10436624;28;20040;-53
2020/12/17 01:32:15;;;;;;;2.83;1.23;;;9.40;99.90;;;;;;10438157;28;20057;-53
2020/12/17 01:37:36;;;;;;;2.38;1.02;;;9.40;99.90;;;;;;10446513;28;20032;-53
2020/12/17 01:42:59;;;;;;;5.32;1.27;;;9.40;99.90;;;;;;10441673;28;20045;-53
2020/12/17 01:48:20;;;;;;;2.80;1.60;;;9.40;99.90;;;;;;10436832;28;20120;-53
2020/12/17 01:53:42;;;;;;;3.13;0.90;;;9.40;99.90;;;;;;10439429;28;20051;-53
2020/12/17 01:59:14;;;;;;;3.53;1.38;;;9.50;99.90;;;;;;10441067;28;20041;-53
2020/12/17 02:04:35;;;;;;;3.30;1.50;;;9.50;99.90;;;;;;10442163;28;20595;-53
2020/12/17 02:09:57;;;;;;;3.80;1.52;;;9.50;99.90;;;;;;10444380;28;20064;-53
2020/12/17 02:15:20;;;;;;;2.58;0.90;;;9.50;99.90;;;;;;10443380;28;20041;-53
2020/12/17 02:20:41;;;;;;;3.03;1.35;;;9.40;99.90;;;;;;10444168;28;20052;-53
2020/12/17 02:26:02;;;;;;;4.63;2.03;;;9.40;99.90;;;;;;10445332;28;20043;-53
2020/12/17 02:31:27;;;;;;;3.22;1.40;;;9.40;99.90;;;;;;10442555;28;20139;-53
2020/12/17 02:36:48;;;;;;;5.78;2.08;;;9.40;99.90;;;;;;10441049;28;20087;-53
2020/12/17 02:42:09;;;;;;;3.92;1.33;;;9.30;99.90;;;;;;10445550;28;20041;-53
2020/12/17 02:47:31;;;;;;;2.90;1.02;;;9.40;99.90;;;;;;10440706;28;20052;-53
2020/12/17 02:52:52;;;;;;;3.17;1.73;;;9.40;99.90;;;;;;10445207;28;20036;-53
2020/12/17 02:58:14;;;;;;;4.15;1.52;;;9.40;99.90;;;;;;10431625;28;20083;-53
2020/12/17 03:03:36;;;;;;;2.97;1.40;;;9.50;99.90;;;;;;10441578;28;20052;-53
2020/12/17 03:08:57;;;;;;;3.05;1.27;;;9.40;99.90;;;;;;10444801;28;20041;-53
2020/12/17 03:14:17;;;;;;;3.20;1.40;;;9.40;99.90;;;;;;10442916;28;20051;-53
2020/12/17 03:19:38;;;;;;;3.80;0.95;;;9.30;99.90;;;;;;10441441;28;20431;-53
2020/12/17 03:25:00;;;;;;;3.65;1.27;;;9.30;99.90;;;;;;10442291;28;20036;-53
2020/12/17 03:30:21;;;;;;;4.22;1.88;;;9.30;99.90;;;;;;10444311;28;20049;-53
2020/12/17 03:35:42;;;;;;;2.47;0.90;;;9.30;99.90;;;;;;10436932;28;20837;-53
2020/12/17 03:41:03;;;;;;;2.20;1.00;;;9.30;99.90;;;;;;10437545;28;20045;-53
2020/12/17 03:46:24;;;;;;;2.92;0.90;;;9.40;99.90;;;;;;10434759;28;20067;-54
2020/12/17 03:51:45;;;;;;;4.00;1.25;;;9.40;99.90;;;;;;10431225;28;20781;-54
2020/12/17 03:57:06;;;;;;;3.97;1.05;;;9.30;99.90;;;;;;10437093;28;20349;-54
2020/12/17 04:02:27;;;;;;;5.22;2.38;;;9.30;99.90;;;;;;10434205;28;20041;-53
2020/12/17 04:07:48;;;;;;;3.45;1.23;;;9.30;99.90;;;;;;10426988;28;20051;-53
2020/12/17 04:13:10;;;;;;;4.38;1.40;;;9.40;99.90;;;;;;10430130;28;20123;-53
2020/12/17 04:18:31;;;;;;;2.85;0.93;;;9.40;99.90;;;;;;10430537;28;20036;-53
2020/12/17 04:23:52;;;;;;;4.82;2.08;;;9.30;99.90;;;;;;10432814;28;20156;-53
2020/12/17 04:29:12;;;;;;;5.05;1.70;;;9.30;99.90;;;;;;10430032;28;20056;-54
2020/12/17 04:34:33;;;;;;;5.10;1.70;;;9.30;99.90;;;;;;10439323;28;20045;-53
2020/12/17 04:39:54;;;;;;;7.05;2.63;;;9.20;99.90;;;;;;10435628;28;20118;-53
2020/12/17 04:45:16;;;;;;;4.25;1.98;;;9.20;99.90;;;;;;10437330;28;20057;-53
2020/12/17 04:50:37;;;;;;;5.68;2.58;;;9.20;99.90;;;;;;10437899;28;20049;-53
2020/12/17 04:55:59;;;;;;;5.00;2.10;;;9.20;99.90;;;;;;10441640;28;20048;-52
2020/12/17 05:01:20;;;;;;;6.47;2.08;;;9.20;99.90;;;;;;10444508;28;20123;-52
2020/12/17 05:06:46;;;;;;;4.75;2.13;;;9.20;99.90;;;;;;10450411;28;20036;-52
2020/12/17 05:12:08;;;;;;;7.88;2.53;;;9.20;99.90;;;;;;10439730;28;20376;-53
2020/12/17 05:17:30;;;;;;;5.35;2.38;;;9.20;99.90;;;;;;10436549;28;20353;-53
2020/12/17 05:22:52;;;;;;;7.63;2.35;;;9.10;99.90;;;;;;10441448;28;20037;-53
2020/12/17 05:28:14;;;;;;;7.60;2.78;;;9.00;99.90;;;;;;10435818;28;20033;-53
2020/12/17 05:33:35;;;;;;;6.70;2.60;;;9.00;99.90;;;;;;10436446;28;20091;-53
2020/12/17 05:39:07;;;;;;;6.20;2.13;;;9.00;99.90;;;;;;10433804;28;20528;-53
2020/12/17 05:44:30;;;;;;;8.15;2.60;;;9.00;99.90;;;;;;10440659;28;20068;-52
2020/12/17 05:49:51;;;;;;;5.72;3.03;;;9.10;99.90;;;;;;10446813;28;20033;-53
2020/12/17 05:55:13;;;;;;;7.38;2.45;;;9.00;99.90;;;;;;10441349;28;20068;-52
2020/12/17 06:00:34;;;;;;;4.78;2.00;;;9.00;99.90;;;;;;10443047;28;20035;-53
2020/12/17 06:05:59;;;;;;;6.18;2.65;;;9.00;99.90;;;;;;10447798;28;20534;-53
2020/12/17 06:11:23;;;;;;;9.30;3.10;;;9.00;99.90;;;;;;10445857;28;20043;-53
2020/12/17 06:16:50;;;;;;;4.95;3.17;;;9.00;99.90;;;;;;10442284;28;20131;-53
2020/12/17 06:22:12;;;;;;;7.07;3.53;;;9.00;99.90;;;;;;10446221;28;20392;-53
2020/12/17 06:27:37;;;;;;;8.23;4.28;;;9.00;99.90;;;;;;10444262;28;20570;-53
2020/12/17 06:33:04;;;;;;;9.35;2.92;;;8.90;99.90;;;;;;10444559;28;20045;-53
2020/12/17 06:38:27;;;;;;;7.82;3.28;;;8.90;99.90;;;;;;10444857;28;20123;-53
2020/12/17 06:43:47;;;;;;;6.15;3.13;;;8.90;99.90;;;;;;10449074;28;20037;-53
2020/12/17 06:49:09;;;;;;;8.32;2.38;;;8.90;99.90;;;;;;10445585;28;20106;-53
2020/12/17 06:54:33;;;;;;;12.68;3.22;;;8.90;99.90;;;;;;10449260;28;20452;-53
2020/12/17 07:00:08;;;;;;;7.22;3.50;;;8.80;99.90;;;;;;10445895;28;20045;-53
2020/12/17 07:05:31;;;;;;;6.32;1.98;;;8.90;99.90;;;;;;10430123;28;20033;-53
2020/12/17 07:10:52;;;;;;;9.95;4.03;;;8.90;99.90;;;;;;10442111;28;20041;-54
2020/12/17 07:16:19;;;;;;;7.82;4.47;;;8.80;99.90;;;;;;10442912;28;20041;-53
2020/12/17 07:21:41;;;;;;;8.10;2.88;;;8.80;99.90;;;;;;10439372;28;20047;-53
2020/12/17 07:27:05;;;;;;;14.88;3.22;;;8.80;99.90;;;;;;10448561;28;20036;-53
2020/12/17 07:32:31;;;;;;;11.02;3.70;;;8.90;99.90;;;;;;10438880;28;20086;-53
2020/12/17 07:37:55;;;;;;;5.80;2.03;;;8.80;99.90;;;;;;10444595;28;20076;-54
2020/12/17 07:43:16;;;;;;;9.13;4.45;;;8.80;99.90;;;;;;10437025;28;20040;-53
2020/12/17 07:48:54;;;;;;;11.25;4.22;;;8.80;99.90;;;;;;10445465;28;20052;-53
2020/12/17 07:54:22;;;;;;;10.40;5.03;;;8.80;99.90;;;;;;10444405;28;20033;-53
2020/12/17 07:59:43;;;;;;;10.10;3.80;;;8.80;99.90;;;;;;10440764;28;20511;-54
2020/12/17 08:05:04;;;;;;;9.57;3.80;;;8.80;99.90;;;;;;10441066;28;20484;-53
2020/12/17 08:10:25;;;;;;;10.10;3.70;;;8.80;99.90;;;;;;10446371;28;20045;-54
2020/12/17 08:15:52;;;;;;;7.63;3.55;;;8.90;99.90;;;;;;10442509;28;20064;-54
2020/12/17 08:21:13;;;;;;;9.30;3.72;;;8.90;99.90;;;;;;10442411;28;20056;-53
2020/12/17 08:26:34;;;;;;;7.95;3.75;;;8.90;99.90;;;;;;10430987;28;20033;-53
2020/12/17 08:31:55;;;;;;;8.02;2.78;;;9.00;99.90;;;;;;10445546;28;20071;-53
2020/12/17 08:37:18;;;;;;;6.20;2.75;;;9.00;99.90;;;;;;10439596;28;20485;-53
2020/12/17 08:42:43;;;;;;;11.07;3.85;;;9.10;99.90;;;;;;10443805;28;20072;-54
2020/12/17 08:48:10;;;;;;;11.25;3.45;;;9.10;99.90;;;;;;10440137;28;20071;-53
2020/12/17 08:53:35;;;;;;;6.57;3.15;;;9.10;99.90;;;;;;10443065;28;20055;-53
2020/12/17 08:59:02;;;;;;;5.43;1.80;;;9.20;99.90;;;;;;10439127;28;20037;-53
2020/12/17 09:04:23;;;;;;;7.72;2.72;;;9.30;99.90;;;;;;10439094;28;20044;-53
2020/12/17 09:09:44;;;;;;;6.20;2.58;;;9.30;99.90;;;;;;10442098;28;20086;-54
2020/12/17 09:15:07;;;;;;;4.57;2.28;;;9.40;99.90;;;;;;10444514;28;20028;-53
2020/12/17 09:20:28;;;;;;;5.03;2.15;;;9.40;99.90;;;;;;10448209;28;20046;-53
2020/12/17 09:25:49;;;;;;;8.40;1.90;;;9.50;99.90;;;;;;10449351;28;20029;-53
2020/12/17 09:31:24;;;;;;;5.05;1.98;;;9.40;99.90;;;;;;10446685;28;20053;-53
2020/12/17 09:36:55;;;;;;;3.03;1.13;;;9.50;99.90;;;;;;10448065;28;20088;-54
2020/12/17 09:42:17;;;;;;;5.28;1.98;;;9.50;99.90;;;;;;10446870;28;20043;-54
2020/12/17 09:47:38;;;;;;;7.10;3.00;;;9.50;99.90;;;;;;10445434;28;20107;-54
2020/12/17 09:53:13;;;;;;;2.45;1.10;;;9.50;99.90;;;;;;10448604;28;20040;-54
2020/12/17 09:58:34;;;;;;;5.30;1.80;;;9.50;99.90;;;;;;10452299;28;20043;-53
2020/12/17 10:03:55;;;;;;;5.30;1.55;;;9.70;99.90;;;;;;10441991;28;20037;-53
2020/12/17 10:09:16;;;;;;;4.07;1.90;;;10.00;99.90;;;;;;10442539;28;20124;-54
2020/12/17 10:14:37;;;;;;;3.08;1.33;;;9.90;99.90;;;;;;10442330;28;20091;-54
2020/12/17 10:19:58;;;;;;;2.50;0.98;;;9.90;99.90;;;;;;10443654;28;20458;-54
2020/12/17 10:25:23;;;;;;;4.40;1.05;;;9.80;99.90;;;;;;10450833;28;20051;-53
2020/12/17 10:30:44;;;;;;;2.47;1.30;;;9.90;99.90;;;;;;10426388;28;20045;-53
2020/12/17 10:36:05;;;;;;;4.78;0.95;;;10.30;99.90;;;;;;10400387;28;20049;-53
2020/12/17 10:41:27;;;;;;;12.18;1.40;;;10.40;99.90;;;;;;10400094;28;20045;-54
2020/12/17 10:46:50;;;;;;;3.38;1.35;;;10.60;99.90;;;;;;10407426;28;20037;-53
2020/12/17 10:52:12;;;;;;;3.53;1.13;;;10.90;99.90;;;;;;10405880;28;20052;-54
2020/12/17 10:57:33;;;;;;;4.38;2.28;;;11.20;99.90;;;;;;10404044;28;20037;-54
2020/12/17 11:02:54;;;;;;;2.97;0.95;;;11.10;99.90;;;;;;10405305;28;20036;-54
2020/12/17 11:08:15;;;;;;;5.47;1.00;;;11.00;99.90;;;;;;10403687;28;20491;-53
2020/12/17 11:13:36;;;;;;;4.70;1.65;;;10.70;99.90;;;;;;10407361;28;20049;-53
2020/12/17 11:18:59;;;;;;;6.25;1.95;;;10.40;99.90;;;;;;10406962;28;20044;-53
2020/12/17 11:24:20;;;;;;;3.83;1.50;;;10.30;99.90;;;;;;10388491;28;20040;-53
2020/12/17 11:29:41;;;;;;;5.03;1.17;;;10.20;99.90;;;;;;10411327;28;20040;-53
2020/12/17 11:35:06;;;;;;;3.40;1.00;;;10.20;99.90;;;;;;10444992;28;20037;-53
2020/12/17 11:40:27;;;;;;;3.95;1.92;;;10.00;99.90;;;;;;10443740;28;20037;-53
2020/12/17 11:45:48;;;;;;;3.03;1.42;;;10.00;99.90;;;;;;10445778;28;20098;-53
2020/12/17 11:51:09;;;;;;;5.78;1.80;;;10.00;99.90;;;;;;10439975;28;20036;-53
2020/12/17 11:56:30;;;;;;;5.00;1.52;;;10.00;99.90;;;;;;10440284;28;20102;-53
2020/12/17 12:01:51;;;;;;;7.30;1.70;;;10.00;99.90;;;;;;10438834;28;20129;-53
2020/12/17 12:07:12;;;;;;;4.95;1.40;;;10.20;99.90;;;;;;10444487;28;20064;-53
2020/12/17 12:12:34;;;;;;;6.65;1.27;;;10.30;99.90;;;;;;10443130;28;20555;-53
2020/12/17 12:17:54;;;;;;;7.00;1.50;;;10.40;99.90;;;;;;10440536;28;20099;-53
2020/12/17 12:23:16;;;;;;;14.73;1.85;;;10.40;99.90;;;;;;10445180;28;20074;-53
2020/12/17 12:28:40;;;;;;;2.42;1.15;;;10.60;99.90;;;;;;10444821;28;20707;-53
2020/12/17 12:34:01;;;;;;;3.25;1.27;;;10.50;99.90;;;;;;10440598;28;20045;-52
2020/12/17 12:39:22;;;;;;;7.30;1.90;;;10.20;99.90;;;;;;10444790;28;20370;-53
2020/12/17 12:44:43;;;;;;;1.50;1.10;;;10.20;99.90;;;;;;10443031;28;20733;-53
2020/12/17 12:50:04;;;;;;;7.75;1.30;;;10.80;99.90;;;;;;10446462;28;20461;-53
2020/12/17 12:55:25;;;;;;;2.08;0.88;;;11.10;99.90;;;;;;10448849;28;20044;-53
2020/12/17 13:00:51;;;;;;;2.75;0.85;;;11.20;99.90;;;;;;10445508;28;20098;-53
2020/12/17 13:06:21;;;;;;;8.40;0.90;;;11.40;99.90;;;;;;10435183;28;20484;-53
2020/12/17 13:11:42;;;;;;;3.85;1.13;;;10.90;99.90;;;;;;10447032;28;20079;-53
2020/12/17 13:17:07;;;;;;;2.70;1.35;;;10.50;99.90;;;;;;10444574;28;20079;-53
2020/12/17 13:22:29;;;;;;;8.75;1.95;;;10.60;99.90;;;;;;10446122;28;20045;-53
2020/12/17 13:27:50;;;;;;;1.50;0.70;;;10.60;99.90;;;;;;10451224;28;20067;-53
2020/12/17 13:33:11;;;;;;;3.30;0.88;;;10.70;99.90;;;;;;10447146;28;20094;-52
2020/12/17 13:38:33;;;;;;;3.28;1.05;;;10.70;99.90;;;;;;10449976;28;20040;-53
2020/12/17 13:43:54;;;;;;;1.65;0.90;;;10.60;99.90;;;;;;10445182;28;20037;-53
2020/12/17 13:49:15;;;;;;;3.35;1.50;;;10.50;99.90;;;;;;10451270;28;20076;-53
2020/12/17 13:54:36;;;;;;;2.53;1.20;;;10.50;99.90;;;;;;10448224;28;20695;-53
2020/12/17 13:59:57;;;;;;;1.95;0.80;;;10.40;99.90;;;;;;10440431;28;20138;-53
2020/12/17 14:05:18;;;;;;;3.45;1.60;;;10.30;99.90;;;;;;10442807;28;20037;-52
2020/12/17 14:10:38;;;;;;;3.60;0.98;;;10.30;99.90;;;;;;10448619;28;20041;-53
2020/12/17 14:15:59;;;;;;;2.15;0.60;;;10.20;99.90;;;;;;10446298;28;20632;-52
2020/12/17 14:21:22;;;;;;;1.42;0.73;;;10.30;99.90;;;;;;10448918;28;21781;-52
2020/12/17 14:26:43;;;;;;;2.10;1.00;;;10.20;99.90;;;;;;10447849;28;20036;-52
2020/12/17 14:32:04;;;;;;;2.42;1.05;;;10.10;99.90;;;;;;10448278;28;20139;-52
2020/12/17 14:37:25;;;;;;;7.60;1.60;;;10.10;99.90;;;;;;10443083;28;20472;-53
2020/12/17 14:42:46;;;;;;;3.33;0.88;;;10.10;99.90;;;;;;10454286;28;20135;-53
2020/12/17 14:48:07;;;;;;;1.92;0.68;;;10.10;99.90;;;;;;10433359;28;20037;-53
2020/12/17 14:53:28;;;;;;;8.90;1.25;;;9.90;99.90;;;;;;10442719;28;20036;-53
2020/12/17 14:58:49;;;;;;;2.72;1.52;;;9.90;99.90;;;;;;10441439;28;20049;-52
2020/12/17 15:04:10;;;;;;;9.65;0.95;;;9.80;99.90;;;;;;10444720;28;20041;-52
2020/12/17 15:09:31;;;;;;;4.15;1.23;;;9.80;99.90;;;;;;10443067;28;21002;-53
2020/12/17 15:14:53;;;;;;;2.47;0.85;;;9.70;99.90;;;;;;10442702;28;20040;-52
2020/12/17 15:20:14;;;;;;;2.22;0.70;;;9.60;99.90;;;;;;10439174;28;20119;-52
2020/12/17 15:25:35;;;;;;;2.33;1.15;;;9.60;99.90;;;;;;10442980;28;20457;-52
2020/12/17 15:30:57;;;;;;;6.00;1.63;;;9.70;99.90;;;;;;10444599;28;20072;-53
2020/12/17 15:36:23;;;;;;;1.95;0.88;;;9.60;99.90;;;;;;10440054;28;20044;-53
2020/12/17 15:41:44;;;;;;;5.10;1.70;;;9.50;99.90;;;;;;10442367;28;20041;-52
2020/12/17 15:47:05;;;;;;;4.10;1.42;;;9.40;99.90;;;;;;10444251;28;20451;-53
2020/12/17 15:52:26;;;;;;;4.50;1.90;;;9.40;99.90;;;;;;10445345;28;20041;-53
2020/12/17 15:57:47;;;;;;;1.75;0.85;;;9.20;99.90;;;;;;10446194;28;20044;-53
2020/12/17 16:03:08;;;;;;;1.83;1.08;;;9.20;99.90;;;;;;10438391;28;20271;-53
2020/12/17 16:08:29;;;;;;;2.20;0.60;;;9.10;99.90;;;;;;10436120;28;20036;-54
2020/12/17 16:13:49;;;;;;;4.50;1.15;;;9.00;99.90;;;;;;10438457;28;20404;-53
2020/12/17 16:19:10;;;;;;;1.52;0.63;;;8.90;99.90;;;;;;10445471;28;20404;-53
2020/12/17 16:24:31;;;;;;;4.75;1.63;;;8.90;99.90;;;;;;10444823;28;20041;-53
2020/12/17 16:29:52;;;;;;;5.80;2.90;;;8.80;99.90;;;;;;10446181;28;20052;-53
2020/12/17 16:35:14;;;;;;;10.25;1.63;;;8.80;99.90;;;;;;10453460;28;20068;-53
2020/12/17 16:40:35;;;;;;;13.48;1.38;;;8.70;99.90;;;;;;10447097;28;20037;-53
2020/12/17 16:45:56;;;;;;;3.67;1.58;;;8.70;99.90;;;;;;10447723;28;20094;-53
2020/12/17 16:51:18;;;;;;;4.30;1.40;;;8.60;99.90;;;;;;10448881;28;20389;-53
2020/12/17 16:56:40;;;;;;;2.75;0.93;;;8.60;99.90;;;;;;10447299;28;20033;-53
2020/12/17 17:02:03;;;;;;;8.23;1.83;;;8.50;99.90;;;;;;10446234;28;20064;-52
2020/12/17 17:07:24;;;;;;;2.50;1.15;;;8.50;99.90;;;;;;10446401;28;20044;-52
2020/12/17 17:12:45;;;;;;;4.38;1.25;;;8.50;99.90;;;;;;10449523;28;20304;-52
2020/12/17 17:18:06;;;;;;;5.20;2.10;;;8.50;99.90;;;;;;10448303;28;20041;-52
2020/12/17 17:23:27;;;;;;;3.90;1.83;;;8.50;99.90;;;;;;10441421;28;20040;-52
2020/12/17 17:28:48;;;;;;;5.90;1.40;;;8.50;99.90;;;;;;10450673;28;20056;-52
2020/12/17 17:34:09;;;;;;;5.45;1.80;;;8.50;99.90;;;;;;10444927;28;20752;-52
2020/12/17 17:39:30;;;;;;;5.20;1.17;;;8.50;99.90;;;;;;10449533;28;20036;-52
2020/12/17 17:44:51;;;;;;;3.75;1.40;;;8.40;99.90;;;;;;10450089;28;20057;-52
2020/12/17 17:50:12;;;;;;;4.18;1.55;;;8.40;99.90;;;;;;10450322;28;20501;-52
2020/12/17 17:55:33;;;;;;;4.60;1.70;;;8.30;99.90;;;;;;10447183;28;20523;-52
2020/12/17 18:00:54;;;;;;;8.77;1.20;;;8.20;99.90;;;;;;10441761;28;20041;-52
2020/12/17 18:06:18;;;;;;;4.60;1.75;;;8.30;99.90;;;;;;10442690;28;20120;-52
2020/12/17 18:11:41;;;;;;;5.93;1.48;;;8.20;99.90;;;;;;10429972;28;20048;-52
2020/12/17 18:17:02;;;;;;;3.33;1.48;;;8.10;99.90;;;;;;10441536;28;20115;-52
2020/12/17 18:22:23;;;;;;;3.33;1.60;;;8.10;99.90;;;;;;10442182;28;20030;-52
2020/12/17 18:27:44;;;;;;;4.70;1.55;;;8.10;99.90;;;;;;10443357;28;20041;-52
2020/12/17 18:33:05;;;;;;;4.07;1.63;;;8.30;99.90;;;;;;10441906;28;20052;-52
2020/12/17 18:38:26;;;;;;;4.93;1.20;;;8.30;99.90;;;;;;10443296;28;20040;-52
2020/12/17 18:43:47;;;;;;;5.72;1.90;;;8.40;99.90;;;;;;10435916;28;20333;-52
2020/12/17 18:49:10;;;;;;;3.30;1.25;;;8.50;99.90;;;;;;10439138;28;20044;-52
2020/12/17 18:54:31;;;;;;;5.22;1.48;;;8.50;99.90;;;;;;10438205;28;20047;-52
2020/12/17 18:59:52;;;;;;;5.85;1.38;;;8.50;99.90;;;;;;10420080;28;20037;-52
2020/12/17 19:05:13;;;;;;;9.23;3.28;;;8.40;99.90;;;;;;10434311;28;20040;-52
2020/12/17 19:10:35;;;;;;;5.00;2.42;;;8.40;99.90;;;;;;10436838;28;20048;-52
2020/12/17 19:15:56;;;;;;;2.55;1.00;;;8.30;99.90;;;;;;10439916;28;20519;-52
2020/12/17 19:21:17;;;;;;;5.63;1.83;;;8.20;99.90;;;;;;10433532;28;20048;-52
2020/12/17 19:26:38;;;;;;;4.78;1.70;;;8.20;99.90;;;;;;10436572;28;20389;-52
2020/12/17 19:31:59;;;;;;;3.00;1.40;;;8.20;99.90;;;;;;10436972;28;20051;-52
2020/12/17 19:37:21;;;;;;;7.57;1.00;;;8.20;99.90;;;;;;10440395;28;20052;-52
2020/12/17 19:42:42;;;;;;;3.47;1.35;;;8.20;99.90;;;;;;10436404;28;20045;-52
2020/12/17 19:48:03;;;;;;;3.42;2.00;;;8.20;99.90;;;;;;10435585;28;20041;-52
2020/12/17 19:53:24;;;;;;;4.50;1.90;;;8.10;99.90;;;;;;10432392;28;20064;-52
2020/12/17 19:58:45;;;;;;;6.32;2.00;;;8.10;99.90;;;;;;10431569;28;20045;-52
2020/12/17 20:04:07;;;;;;;4.63;2.72;;;8.10;99.90;;;;;;10435799;28;20036;-52
2020/12/17 20:09:28;;;;;;;3.88;1.67;;;8.20;99.90;;;;;;10438577;28;20666;-52
2020/12/17 20:14:50;;;;;;;3.47;1.67;;;8.30;99.90;;;;;;10433513;28;20053;-52
2020/12/17 20:20:11;;;;;;;3.22;1.15;;;8.30;99.90;;;;;;10430634;28;20080;-52
2020/12/17 20:25:32;;;;;;;3.83;1.67;;;8.30;99.90;;;;;;10435425;28;20033;-52
2020/12/17 20:30:53;;;;;;;11.05;1.95;;;8.30;99.90;;;;;;10437141;28;20041;-52
2020/12/17 20:36:27;;;;;;;4.72;1.20;;;8.40;99.90;;;;;;10434574;28;20032;-52
2020/12/17 20:41:48;;;;;;;3.17;1.73;;;8.50;99.90;;;;;;10433200;28;20036;-52
2020/12/17 20:47:09;;;;;;;3.97;1.63;;;8.60;99.90;;;;;;10432687;28;20059;-52
2020/12/17 20:52:31;;;;;;;3.47;1.23;;;8.60;99.90;;;;;;10439560;28;20079;-52
2020/12/17 20:57:52;;;;;;;4.70;1.52;;;8.50;99.90;;;;;;10434801;28;20392;-52
2020/12/17 21:03:13;;;;;;;4.88;2.70;;;8.50;99.90;;;;;;10437775;28;20051;-52
2020/12/17 21:08:36;;;;;;;5.22;1.73;;;8.40;99.90;;;;;;10431862;28;20496;-52
2020/12/17 21:13:57;;;;;;;6.43;1.02;;;8.30;99.90;;;;;;10438458;28;20044;-52
2020/12/17 21:19:18;;;;;;;6.97;1.38;;;8.40;99.90;;;;;;10437814;28;20783;-52
2020/12/17 21:24:39;;;;;;;2.60;1.27;;;8.40;99.90;;;;;;10442571;28;20102;-52
2020/12/17 21:29:59;;;;;;;5.75;2.35;;;8.40;99.90;;;;;;10445333;28;20737;-54
2020/12/17 21:35:20;;;;;;;2.30;1.02;;;8.50;99.90;;;;;;10443307;28;20075;-52
2020/12/17 21:40:41;;;;;;;3.47;1.27;;;8.30;99.90;;;;;;10440869;28;20497;-52
2020/12/17 21:46:03;;;;;;;2.60;1.10;;;8.10;99.90;;;;;;10439489;28;20053;-52
2020/12/17 21:51:24;;;;;;;6.13;1.50;;;8.10;99.90;;;;;;10439204;28;20037;-52
2020/12/17 21:56:45;;;;;;;5.22;1.55;;;8.00;99.90;;;;;;10440620;28;20045;-52
2020/12/17 22:02:06;;;;;;;2.13;1.27;;;7.90;99.90;;;;;;10447646;28;20590;-52
2020/12/17 22:07:27;;;;;;;7.20;1.65;;;7.90;99.90;;;;;;10448559;28;20111;-52
2020/12/17 22:12:48;;;;;;;6.93;1.23;;;7.80;99.90;;;;;;10446203;28;20045;-52
2020/12/17 22:18:09;;;;;;;5.28;1.50;;;7.80;99.90;;;;;;10452862;28;20043;-52
2020/12/17 22:23:30;;;;;;;5.15;2.25;;;7.70;99.90;;;;;;10445420;28;20040;-52
2020/12/17 22:28:52;;;;;;;6.90;1.02;;;7.60;99.90;;;;;;10429304;28;20029;-52
2020/12/17 22:34:13;;;;;;;4.25;1.35;;;7.60;99.90;;;;;;10442688;28;20041;-52
2020/12/17 22:39:34;;;;;;;4.07;2.05;;;7.50;99.90;;;;;;10441222;28;20041;-52
2020/12/17 22:44:55;;;;;;;2.70;1.30;;;7.50;99.90;;;;;;10436515;28;20128;-52
2020/12/17 22:50:16;;;;;;;7.38;1.92;;;7.50;99.90;;;;;;10445094;28;20040;-52
2020/12/17 22:55:38;;;;;;;4.30;2.00;;;7.50;99.90;;;;;;10443811;28;20046;-52
2020/12/17 23:00:59;;;;;;;3.72;1.15;;;7.50;99.90;;;;;;10448838;28;20472;-52
2020/12/17 23:06:21;;;;;;;3.65;1.48;;;7.50;99.90;;;;;;10442283;28;20033;-52
2020/12/17 23:11:46;;;;;;;30.05;3.05;;;7.50;99.90;;;;;;10443129;28;20052;-52
2020/12/17 23:17:07;;;;;;;2.50;0.80;;;7.50;99.90;;;;;;10444342;28;20033;-52
2020/12/17 23:22:28;;;;;;;3.30;1.30;;;7.40;99.90;;;;;;10441688;28;20029;-52
2020/12/17 23:27:50;;;;;;;4.60;2.33;;;7.40;99.90;;;;;;10428386;28;20461;-52
2020/12/17 23:33:11;;;;;;;2.20;1.10;;;7.40;99.90;;;;;;10444304;28;20041;-52
2020/12/17 23:38:32;;;;;;;6.90;1.73;;;7.40;99.90;;;;;;10439822;28;20060;-52
2020/12/17 23:43:53;;;;;;;4.40;1.80;;;7.40;99.90;;;;;;10438488;28;20488;-52
2020/12/17 23:49:14;;;;;;;8.75;1.50;;;7.40;99.90;;;;;;10431744;28;20037;-52
2020/12/17 23:54:35;;;;;;;10.60;1.48;;;7.40;99.90;;;;;;10425090;28;20044;-52
2020/12/17 23:59:56;;;;;;;4.18;1.83;;;7.30;99.90;;;;;;10443195;28;20777;-52
